Time;durP1;ratioP1;P1;durP2;ratioP2;P2;SDS_P1;SDS_P2;PMS_P1;PMS_P2;Temp;Humidity;BMP_temperature;BMP_pressure;BME280_temperature;BME280_humidity;BME280_pressure;Samples;Min_cycle;Max_cycle;Signal;HPM_P1;HPM_P2
2022/07/03 00:01:52;;;;;;;1.10;1.00;;;26.60;46.70;;;;;;5052096;28;45375;-83
2022/07/03 00:04:20;;;;;;;1.40;1.10;;;26.50;46.60;;;;;;5053179;28;45487;-84
2022/07/03 00:06:47;;;;;;;2.55;1.27;;;26.50;46.60;;;;;;5062023;28;45414;-85
2022/07/03 00:09:13;;;;;;;1.23;1.15;;;26.50;46.80;;;;;;5057323;28;45353;-84
2022/07/03 00:11:40;;;;;;;1.55;1.20;;;26.50;46.80;;;;;;5064735;28;46595;-82
2022/07/03 00:14:09;;;;;;;1.25;1.10;;;26.50;46.80;;;;;;5064571;28;45393;-83
2022/07/03 00:16:35;;;;;;;1.15;1.08;;;26.50;46.10;;;;;;5066466;28;45361;-82
2022/07/03 00:19:02;;;;;;;2.00;1.08;;;26.50;46.20;;;;;;5065914;28;45495;-85
2022/07/03 00:21:30;;;;;;;1.00;1.00;;;26.50;46.30;;;;;;5062015;28;45475;-83
2022/07/03 00:24:00;;;;;;;1.40;1.30;;;26.40;46.50;;;;;;5066075;28;45205;-85
2022/07/03 00:26:27;;;;;;;1.00;0.90;;;26.40;46.50;;;;;;5067468;28;45289;-83
2022/07/03 00:28:54;;;;;;;1.20;1.10;;;26.40;46.60;;;;;;5055341;28;45250;-83
2022/07/03 00:31:23;;;;;;;1.13;1.02;;;26.40;46.50;;;;;;5065373;28;46842;-85
2022/07/03 00:33:49;;;;;;;1.45;1.17;;;26.40;46.50;;;;;;5066859;28;45263;-84
2022/07/03 00:36:17;;;;;;;1.20;1.02;;;26.30;46.50;;;;;;5067779;28;45288;-84
2022/07/03 00:38:44;;;;;;;1.10;1.00;;;26.30;46.50;;;;;;5067607;28;45277;-84
2022/07/03 00:41:11;;;;;;;1.58;1.02;;;26.30;46.60;;;;;;5066583;28;45735;-84
2022/07/03 00:43:38;;;;;;;1.20;1.10;;;26.30;46.60;;;;;;5063425;28;44856;-85
2022/07/03 00:46:07;;;;;;;1.15;1.05;;;26.30;46.70;;;;;;5067387;28;45312;-84
2022/07/03 00:48:37;;;;;;;2.10;1.00;;;26.20;47.30;;;;;;5067520;28;45218;-84
2022/07/03 00:51:04;;;;;;;1.27;1.17;;;26.20;46.80;;;;;;5067305;28;45782;-84
2022/07/03 00:53:32;;;;;;;1.20;1.10;;;26.20;46.70;;;;;;5067246;28;45320;-84
2022/07/03 00:55:59;;;;;;;0.90;0.90;;;26.20;46.90;;;;;;5066689;28;45257;-85
2022/07/03 00:58:26;;;;;;;1.48;1.05;;;26.20;47.20;;;;;;5067658;28;45189;-84
2022/07/03 01:00:53;;;;;;;0.90;0.90;;;26.10;46.70;;;;;;5067014;28;45278;-84
2022/07/03 01:03:21;;;;;;;1.00;1.00;;;26.10;47.30;;;;;;5066869;28;45451;-85
2022/07/03 01:05:52;;;;;;;1.20;1.10;;;26.10;46.70;;;;;;5067276;28;45379;-84
2022/07/03 01:08:22;;;;;;;0.95;0.90;;;26.10;46.80;;;;;;5064863;28;45312;-85
2022/07/03 01:10:53;;;;;;;1.00;1.00;;;26.10;46.80;;;;;;5066659;28;45468;-85
2022/07/03 01:13:26;;;;;;;0.90;0.90;;;26.00;47.00;;;;;;5067100;28;45362;-85
2022/07/03 01:15:57;;;;;;;0.95;0.95;;;26.00;47.00;;;;;;5067040;28;45222;-84
2022/07/03 01:18:30;;;;;;;1.10;1.10;;;26.00;46.90;;;;;;5066845;28;45286;-84
2022/07/03 01:21:00;;;;;;;0.93;0.93;;;26.00;46.80;;;;;;5065930;28;45443;-84
2022/07/03 01:23:32;;;;;;;1.70;0.98;;;26.00;46.80;;;;;;5066871;28;45286;-84
2022/07/03 01:26:00;;;;;;;1.70;1.00;;;26.00;46.80;;;;;;5066436;28;45285;-84
2022/07/03 01:28:27;;;;;;;1.00;1.00;;;25.90;46.90;;;;;;5064350;28;45347;-84
2022/07/03 01:30:54;;;;;;;1.00;1.00;;;25.90;46.80;;;;;;5066688;28;45405;-84
2022/07/03 01:33:23;;;;;;;1.50;1.00;;;25.90;46.90;;;;;;5066581;28;45338;-84
2022/07/03 01:36:05;;;;;;;0.98;0.98;;;25.90;47.50;;;;;;5064295;28;45275;-84
2022/07/03 01:38:34;;;;;;;0.95;0.95;;;25.80;46.70;;;;;;5066028;28;45719;-84
2022/07/03 01:41:03;;;;;;;0.82;0.82;;;25.80;46.70;;;;;;5066873;28;45655;-84
2022/07/03 01:43:30;;;;;;;1.42;0.95;;;25.80;46.80;;;;;;5066538;28;45189;-84
2022/07/03 01:45:57;;;;;;;1.17;1.08;;;25.80;46.90;;;;;;5066853;28;45272;-84
2022/07/03 01:48:24;;;;;;;0.90;0.90;;;25.80;46.90;;;;;;5066609;28;45434;-84
2022/07/03 01:50:51;;;;;;;1.23;0.90;;;25.70;46.60;;;;;;5062952;28;45551;-85
2022/07/03 01:53:18;;;;;;;0.90;0.90;;;25.70;46.70;;;;;;5068721;28;45216;-85
2022/07/03 01:55:45;;;;;;;1.35;1.02;;;25.70;46.90;;;;;;5070104;28;45191;-85
2022/07/03 01:58:13;;;;;;;1.00;1.00;;;25.70;46.90;;;;;;5069996;28;45217;-84
2022/07/03 02:00:46;;;;;;;0.82;0.82;;;25.70;46.70;;;;;;5069656;28;45543;-84
2022/07/03 02:03:12;;;;;;;1.10;1.05;;;25.70;46.80;;;;;;5069745;28;45300;-82
2022/07/03 02:05:46;;;;;;;0.75;0.75;;;25.60;46.60;;;;;;5069414;28;45217;-84
2022/07/03 02:08:22;;;;;;;0.75;0.75;;;25.60;46.60;;;;;;5069291;28;45402;-85
2022/07/03 02:10:56;;;;;;;3.13;1.10;;;25.60;46.60;;;;;;5068848;28;46838;-85
2022/07/03 02:13:25;;;;;;;0.70;0.70;;;25.60;46.60;;;;;;5066420;28;45261;-85
2022/07/03 02:15:52;;;;;;;1.15;1.10;;;25.60;46.80;;;;;;5069796;28;45202;-84
2022/07/03 02:18:28;;;;;;;1.10;1.10;;;25.50;46.80;;;;;;5069910;28;45265;-85
2022/07/03 02:21:06;;;;;;;0.93;0.90;;;25.50;46.70;;;;;;5066966;28;45408;-84
2022/07/03 02:23:33;;;;;;;0.95;0.95;;;25.50;46.60;;;;;;5069483;28;45297;-85
2022/07/03 02:26:04;;;;;;;0.90;0.90;;;25.50;46.70;;;;;;5069370;28;45131;-85
2022/07/03 02:28:38;;;;;;;0.95;0.95;;;25.50;46.70;;;;;;5064912;28;45242;-85
2022/07/03 02:31:05;;;;;;;1.27;1.17;;;25.50;46.80;;;;;;5049293;28;46995;-84
2022/07/03 02:33:32;;;;;;;1.00;1.00;;;25.40;46.60;;;;;;5046320;28;45348;-85
2022/07/03 02:35:59;;;;;;;0.80;0.80;;;25.40;46.70;;;;;;5049271;28;45385;-85
2022/07/03 02:38:26;;;;;;;1.13;1.02;;;25.40;46.80;;;;;;5049509;28;45248;-84
2022/07/03 02:40:58;;;;;;;0.95;0.95;;;25.40;46.80;;;;;;5048812;28;46387;-85
2022/07/03 02:43:29;;;;;;;1.25;1.00;;;25.40;46.70;;;;;;5048701;28;45237;-85
2022/07/03 02:46:01;;;;;;;1.10;1.10;;;25.40;46.60;;;;;;5049188;28;45316;-84
2022/07/03 02:48:30;;;;;;;0.90;0.90;;;25.30;46.70;;;;;;5049292;28;45237;-84
2022/07/03 02:51:00;;;;;;;1.13;1.02;;;25.30;46.70;;;;;;5046527;28;45409;-84
2022/07/03 02:53:29;;;;;;;0.80;0.80;;;25.30;46.70;;;;;;5049079;28;45253;-84
2022/07/03 02:55:59;;;;;;;2.15;1.02;;;25.30;46.60;;;;;;5048940;28;45320;-84
2022/07/03 02:58:40;;;;;;;0.93;0.90;;;25.30;46.70;;;;;;5046504;28;45292;-86
2022/07/03 03:01:10;;;;;;;2.25;0.90;;;25.20;46.70;;;;;;5048614;28;47021;-86
2022/07/03 03:03:38;;;;;;;1.42;0.80;;;25.20;46.70;;;;;;5045394;28;45248;-86
2022/07/03 03:06:08;;;;;;;0.98;0.80;;;25.20;46.70;;;;;;5048876;28;45235;-86
2022/07/03 03:08:37;;;;;;;0.98;0.90;;;25.20;46.70;;;;;;5048593;28;45283;-86
2022/07/03 03:11:07;;;;;;;1.08;0.80;;;25.20;46.60;;;;;;5048371;28;45597;-85
2022/07/03 03:13:34;;;;;;;0.85;0.85;;;25.10;46.60;;;;;;5045498;28;45440;-86
2022/07/03 03:16:05;;;;;;;1.67;0.98;;;25.10;46.70;;;;;;5045865;28;45270;-86
2022/07/03 03:18:36;;;;;;;0.90;0.90;;;25.10;46.70;;;;;;5048460;28;45584;-85
2022/07/03 03:21:03;;;;;;;0.93;0.80;;;25.10;46.70;;;;;;5045979;28;45388;-86
2022/07/03 03:23:43;;;;;;;1.48;1.00;;;25.10;46.50;;;;;;5048558;28;45291;-86
2022/07/03 03:26:10;;;;;;;2.47;0.95;;;25.10;46.70;;;;;;5048060;28;45119;-86
2022/07/03 03:28:37;;;;;;;0.95;0.95;;;25.00;46.60;;;;;;5048325;28;45232;-86
2022/07/03 03:31:07;;;;;;;1.05;0.95;;;25.00;46.50;;;;;;5048140;28;45228;-84
2022/07/03 03:33:37;;;;;;;4.75;1.08;;;25.00;46.60;;;;;;5048374;28;45549;-84
2022/07/03 03:36:06;;;;;;;0.95;0.95;;;25.00;46.70;;;;;;5047569;28;45228;-84
2022/07/03 03:38:33;;;;;;;1.05;0.98;;;25.00;46.50;;;;;;5047490;28;45304;-85
2022/07/03 03:41:00;;;;;;;0.80;0.80;;;25.00;46.60;;;;;;5048043;28;45555;-85
2022/07/03 03:43:27;;;;;;;0.90;0.90;;;25.00;46.60;;;;;;5047760;28;45226;-84
2022/07/03 03:45:54;;;;;;;0.80;0.80;;;25.00;46.60;;;;;;5048013;28;45188;-84
2022/07/03 03:48:21;;;;;;;1.67;0.90;;;25.00;46.50;;;;;;5048268;28;45165;-84
2022/07/03 03:50:49;;;;;;;0.80;0.80;;;25.00;46.70;;;;;;5047653;28;45446;-85
2022/07/03 03:53:16;;;;;;;1.33;1.00;;;24.90;46.50;;;;;;5047899;28;45421;-85
2022/07/03 03:55:54;;;;;;;0.75;0.75;;;24.90;46.60;;;;;;5047913;28;44615;-84
2022/07/03 03:58:20;;;;;;;0.85;0.85;;;24.90;46.60;;;;;;5045388;28;45272;-84
2022/07/03 04:00:47;;;;;;;1.10;1.00;;;24.90;46.50;;;;;;5044935;28;46317;-84
2022/07/03 04:03:14;;;;;;;0.90;0.90;;;24.90;46.50;;;;;;5048241;28;45446;-84
2022/07/03 04:05:41;;;;;;;1.65;0.95;;;24.90;46.50;;;;;;5045242;28;45300;-85
2022/07/03 04:08:10;;;;;;;0.80;0.80;;;24.80;46.50;;;;;;5047781;28;45214;-85
2022/07/03 04:10:37;;;;;;;0.90;0.90;;;24.80;46.50;;;;;;5047336;28;46689;-86
2022/07/03 04:13:04;;;;;;;0.77;0.77;;;24.80;46.50;;;;;;5047224;28;45256;-86
2022/07/03 04:15:30;;;;;;;0.95;0.90;;;24.80;46.50;;;;;;5046563;28;45307;-86
2022/07/03 04:17:57;;;;;;;0.95;0.90;;;24.80;46.60;;;;;;5045191;28;45347;-86
2022/07/03 04:20:24;;;;;;;0.80;0.80;;;24.70;47.20;;;;;;5047042;28;46359;-86
2022/07/03 04:22:51;;;;;;;0.85;0.85;;;24.70;46.50;;;;;;5047398;28;45229;-86
2022/07/03 04:25:19;;;;;;;0.85;0.85;;;24.70;46.60;;;;;;5047260;28;45255;-86
2022/07/03 04:27:46;;;;;;;0.90;0.90;;;24.70;46.60;;;;;;5047747;28;45371;-85
2022/07/03 04:30:13;;;;;;;1.08;0.60;;;24.70;46.60;;;;;;5046146;28;45521;-86
2022/07/03 04:32:40;;;;;;;0.90;0.90;;;24.70;46.60;;;;;;5047176;28;45194;-86
2022/07/03 04:35:08;;;;;;;0.80;0.80;;;24.70;46.60;;;;;;5047252;28;45312;-86
2022/07/03 04:37:35;;;;;;;1.27;1.00;;;24.60;46.50;;;;;;5047123;28;45313;-86
2022/07/03 04:40:01;;;;;;;1.20;1.08;;;24.60;46.40;;;;;;5044243;28;46325;-86
2022/07/03 04:42:30;;;;;;;0.70;0.70;;;24.60;46.80;;;;;;5046710;28;45211;-86
2022/07/03 04:44:56;;;;;;;0.73;0.73;;;24.60;46.60;;;;;;5047037;28;45232;-85
2022/07/03 04:47:23;;;;;;;0.80;0.80;;;24.60;46.80;;;;;;5047182;28;45412;-85
2022/07/03 04:49:50;;;;;;;0.90;0.90;;;24.60;46.70;;;;;;5046966;28;45773;-85
2022/07/03 04:52:20;;;;;;;0.98;0.95;;;24.60;46.80;;;;;;5047394;28;45296;-85
2022/07/03 04:54:47;;;;;;;0.82;0.82;;;24.60;46.80;;;;;;5046995;28;45252;-86
2022/07/03 04:57:14;;;;;;;0.82;0.82;;;24.60;46.80;;;;;;5044586;28;44766;-86
2022/07/03 04:59:42;;;;;;;0.82;0.80;;;24.50;46.80;;;;;;5044260;28;45714;-86
2022/07/03 05:02:09;;;;;;;0.80;0.80;;;24.50;46.90;;;;;;5044520;28;45284;-86
2022/07/03 05:04:36;;;;;;;1.02;0.93;;;24.50;46.70;;;;;;5046868;28;45260;-86
2022/07/03 05:07:03;;;;;;;0.70;0.70;;;24.50;46.80;;;;;;5039044;28;45399;-86
2022/07/03 05:09:30;;;;;;;1.75;0.98;;;24.50;46.60;;;;;;5046714;28;45445;-86
2022/07/03 05:11:56;;;;;;;0.70;0.70;;;24.50;46.70;;;;;;5046642;28;45343;-86
2022/07/03 05:14:23;;;;;;;0.85;0.85;;;24.60;46.70;;;;;;5044127;28;45233;-86
2022/07/03 05:16:51;;;;;;;1.33;1.00;;;24.60;46.70;;;;;;5047391;28;45218;-86
2022/07/03 05:19:18;;;;;;;0.82;0.82;;;24.60;46.70;;;;;;5045688;28;46401;-86
2022/07/03 05:21:45;;;;;;;0.95;0.95;;;24.50;46.60;;;;;;5046470;28;45362;-86
2022/07/03 05:24:12;;;;;;;0.80;0.80;;;24.60;46.70;;;;;;5046769;28;45359;-85
2022/07/03 05:26:39;;;;;;;0.70;0.70;;;24.60;46.70;;;;;;5047186;28;45446;-86
2022/07/03 05:29:06;;;;;;;1.38;0.80;;;24.60;46.60;;;;;;5047467;28;46469;-85
2022/07/03 05:31:32;;;;;;;0.75;0.70;;;24.60;46.60;;;;;;5066124;28;45202;-86
2022/07/03 05:34:01;;;;;;;0.73;0.73;;;24.60;46.50;;;;;;5070569;28;45320;-85
2022/07/03 05:36:28;;;;;;;2.05;1.00;;;24.60;46.50;;;;;;5070368;28;45299;-86
2022/07/03 05:41:39;;;;;;;0.68;0.68;;;24.60;46.60;;;;;;5067526;28;45315;-85
2022/07/03 05:44:06;;;;;;;0.88;0.88;;;24.60;46.50;;;;;;5067248;28;45197;-86
2022/07/03 05:46:32;;;;;;;0.82;0.82;;;24.60;46.50;;;;;;5067586;28;45360;-85
2022/07/03 05:49:01;;;;;;;0.77;0.70;;;24.60;46.50;;;;;;5067281;28;46823;-85
2022/07/03 05:51:33;;;;;;;0.88;0.88;;;24.60;46.50;;;;;;5070219;28;45257;-86
2022/07/03 05:54:00;;;;;;;0.95;0.95;;;24.60;46.50;;;;;;5070748;28;45257;-85
2022/07/03 05:56:27;;;;;;;0.90;0.90;;;24.60;46.50;;;;;;5067433;28;45281;-85
2022/07/03 05:58:53;;;;;;;1.00;1.00;;;24.60;46.50;;;;;;5069844;28;47340;-85
2022/07/03 06:01:20;;;;;;;0.63;0.63;;;24.60;46.50;;;;;;5070036;28;45263;-86
2022/07/03 06:03:47;;;;;;;0.85;0.85;;;24.60;46.50;;;;;;5070068;28;45230;-85
2022/07/03 06:06:15;;;;;;;0.80;0.80;;;24.60;46.50;;;;;;5070259;28;45115;-85
2022/07/03 06:08:42;;;;;;;0.77;0.77;;;24.60;46.50;;;;;;5069628;28;46505;-85
2022/07/03 06:11:09;;;;;;;0.90;0.90;;;24.60;46.50;;;;;;5069629;28;45307;-85
2022/07/03 06:13:36;;;;;;;0.93;0.93;;;24.60;46.40;;;;;;5070002;28;45271;-85
2022/07/03 06:16:03;;;;;;;2.25;0.85;;;24.60;46.50;;;;;;5069404;28;45341;-85
2022/07/03 06:18:30;;;;;;;0.68;0.68;;;24.60;46.70;;;;;;5066417;28;46558;-85
2022/07/03 06:20:57;;;;;;;0.70;0.70;;;24.60;46.50;;;;;;5068661;28;45384;-84
2022/07/03 06:23:25;;;;;;;2.15;0.75;;;24.70;46.50;;;;;;5069068;28;45355;-85
2022/07/03 06:25:52;;;;;;;1.42;1.00;;;24.70;46.20;;;;;;5069350;28;45605;-85
2022/07/03 06:28:18;;;;;;;1.67;0.90;;;24.70;46.00;;;;;;5068561;28;46375;-84
2022/07/03 06:30:45;;;;;;;2.08;0.90;;;24.70;46.50;;;;;;5069120;28;45423;-85
2022/07/03 06:33:12;;;;;;;0.90;0.90;;;24.70;47.30;;;;;;5069037;28;45249;-84
2022/07/03 06:35:39;;;;;;;1.95;0.90;;;24.70;46.70;;;;;;5066540;28;45365;-85
2022/07/03 06:38:06;;;;;;;0.95;0.80;;;24.70;46.60;;;;;;5068954;28;46304;-84
2022/07/03 06:40:34;;;;;;;0.90;0.90;;;24.70;46.70;;;;;;5067784;28;45128;-85
2022/07/03 06:43:01;;;;;;;1.52;0.70;;;24.80;46.80;;;;;;5068132;28;45407;-85
2022/07/03 06:45:28;;;;;;;1.17;1.05;;;24.80;46.60;;;;;;5068317;28;45264;-84
2022/07/03 06:47:55;;;;;;;1.38;0.82;;;24.80;46.60;;;;;;5065269;28;46572;-84
2022/07/03 06:50:21;;;;;;;0.80;0.80;;;24.80;46.60;;;;;;5065519;28;45264;-85
2022/07/03 06:52:48;;;;;;;0.68;0.68;;;24.80;46.50;;;;;;5067711;28;45336;-87
2022/07/03 06:55:15;;;;;;;0.80;0.80;;;24.80;46.50;;;;;;5068737;28;45262;-85
2022/07/03 06:57:43;;;;;;;3.05;0.77;;;24.80;46.20;;;;;;5065280;28;45436;-85
2022/07/03 07:00:11;;;;;;;2.28;0.88;;;24.90;45.80;;;;;;5067777;28;45277;-85
2022/07/03 07:02:38;;;;;;;0.90;0.80;;;24.90;45.80;;;;;;5067831;28;45205;-85
2022/07/03 07:05:06;;;;;;;0.90;0.90;;;24.90;45.40;;;;;;5065893;28;45173;-85
2022/07/03 07:07:33;;;;;;;0.70;0.70;;;24.90;46.00;;;;;;5068158;28;45441;-86
2022/07/03 07:10:00;;;;;;;2.17;1.00;;;24.90;46.20;;;;;;5067756;28;45365;-85
2022/07/03 07:12:26;;;;;;;0.73;0.70;;;25.00;46.30;;;;;;5067856;28;45311;-85
2022/07/03 07:14:55;;;;;;;0.77;0.77;;;25.00;46.30;;;;;;5068427;28;45174;-85
2022/07/03 07:17:21;;;;;;;0.98;0.90;;;25.00;46.30;;;;;;5067722;28;46614;-85
2022/07/03 07:19:48;;;;;;;1.10;0.65;;;25.00;46.30;;;;;;5065132;28;45326;-86
2022/07/03 07:22:15;;;;;;;0.90;0.90;;;25.00;46.60;;;;;;5067535;28;45495;-85
2022/07/03 07:24:42;;;;;;;0.70;0.70;;;25.00;46.40;;;;;;5065420;28;45390;-85
2022/07/03 07:27:09;;;;;;;2.78;1.10;;;25.10;46.30;;;;;;5067762;28;45743;-85
2022/07/03 07:29:36;;;;;;;0.77;0.77;;;25.10;46.40;;;;;;5051275;28;45186;-85
2022/07/03 07:32:05;;;;;;;0.70;0.70;;;25.20;46.50;;;;;;5047077;28;45332;-84
2022/07/03 07:34:31;;;;;;;1.02;0.90;;;25.20;46.60;;;;;;5047680;28;45257;-85
2022/07/03 07:36:58;;;;;;;0.68;0.68;;;25.20;46.80;;;;;;5047417;28;45507;-85
2022/07/03 07:39:25;;;;;;;0.70;0.70;;;25.30;47.00;;;;;;5047891;28;45308;-85
2022/07/03 07:41:52;;;;;;;0.70;0.70;;;25.30;47.50;;;;;;5047599;28;45280;-84
2022/07/03 07:44:19;;;;;;;0.80;0.80;;;25.30;48.20;;;;;;5047290;28;45303;-85
2022/07/03 07:46:45;;;;;;;1.10;0.70;;;25.40;47.70;;;;;;5046657;28;46458;-84
2022/07/03 07:49:14;;;;;;;0.70;0.70;;;25.40;48.00;;;;;;5047126;28;45304;-84
2022/07/03 07:51:41;;;;;;;0.70;0.70;;;25.50;48.10;;;;;;5046890;28;45286;-84
2022/07/03 07:54:07;;;;;;;0.70;0.70;;;25.50;48.30;;;;;;5049548;28;45300;-85
2022/07/03 07:56:34;;;;;;;0.90;0.90;;;25.50;48.20;;;;;;5044466;28;45513;-84
2022/07/03 07:59:01;;;;;;;0.80;0.80;;;25.50;48.30;;;;;;5044721;28;45244;-84
2022/07/03 08:06:58;;;;;;;1.60;0.80;;;25.60;48.50;;;;;;5044370;28;45839;-85
2022/07/03 08:09:24;;;;;;;0.60;0.60;;;25.70;48.50;;;;;;5046769;28;45241;-84
2022/07/03 08:11:51;;;;;;;0.70;0.70;;;25.70;48.40;;;;;;5043970;28;45210;-85
2022/07/03 08:14:18;;;;;;;0.80;0.80;;;25.70;48.50;;;;;;5046697;28;45304;-85
2022/07/03 08:16:46;;;;;;;0.80;0.80;;;25.80;48.80;;;;;;5046507;28;46385;-85
2022/07/03 08:19:14;;;;;;;0.70;0.70;;;25.80;48.70;;;;;;5046818;28;45182;-84
2022/07/03 08:21:42;;;;;;;0.60;0.60;;;25.80;48.80;;;;;;5046490;28;45253;-85
2022/07/03 08:24:10;;;;;;;0.60;0.60;;;25.90;48.80;;;;;;5043681;28;45360;-85
2022/07/03 08:26:37;;;;;;;0.60;0.60;;;25.90;49.00;;;;;;5045910;28;45715;-83
2022/07/03 08:29:04;;;;;;;0.63;0.55;;;26.00;49.20;;;;;;5043936;28;45181;-84
2022/07/03 08:31:31;;;;;;;0.90;0.70;;;26.00;49.50;;;;;;5046402;28;45309;-84
2022/07/03 08:33:58;;;;;;;0.65;0.65;;;26.00;49.50;;;;;;5046630;28;45271;-84
2022/07/03 08:36:26;;;;;;;0.80;0.80;;;26.10;50.00;;;;;;5045790;28;48353;-84
2022/07/03 08:38:53;;;;;;;0.68;0.68;;;26.10;50.10;;;;;;5043685;28;45231;-84
2022/07/03 08:41:20;;;;;;;0.63;0.63;;;26.20;50.10;;;;;;5046556;28;45248;-86
2022/07/03 08:43:47;;;;;;;0.60;0.60;;;26.20;50.30;;;;;;5046460;28;45442;-84
2022/07/03 08:46:13;;;;;;;0.75;0.75;;;26.30;50.50;;;;;;5046170;28;46582;-85
2022/07/03 08:48:40;;;;;;;0.50;0.50;;;26.30;50.30;;;;;;5046570;28;45394;-85
2022/07/03 08:51:07;;;;;;;1.02;0.70;;;26.30;50.00;;;;;;5045874;28;45406;-85
2022/07/03 08:53:36;;;;;;;0.70;0.70;;;26.40;50.10;;;;;;5046635;28;45356;-85
2022/07/03 08:56:02;;;;;;;0.60;0.60;;;26.40;49.90;;;;;;5046003;28;46625;-84
2022/07/03 08:58:30;;;;;;;0.60;0.60;;;26.40;49.80;;;;;;5045386;28;45248;-85
2022/07/03 09:00:57;;;;;;;0.85;0.60;;;26.50;49.40;;;;;;5045940;28;45292;-84
2022/07/03 09:03:24;;;;;;;0.50;0.50;;;26.50;49.40;;;;;;5045865;28;45293;-85
2022/07/03 09:05:50;;;;;;;0.68;0.68;;;26.50;49.40;;;;;;5049451;28;45888;-84
2022/07/03 09:08:17;;;;;;;0.60;0.60;;;26.50;49.20;;;;;;5049708;28;45191;-84
2022/07/03 09:10:46;;;;;;;0.98;0.70;;;26.60;48.80;;;;;;5046822;28;45325;-84
2022/07/03 09:13:13;;;;;;;0.50;0.50;;;26.60;48.00;;;;;;5052723;28;45261;-85
2022/07/03 09:15:40;;;;;;;0.50;0.50;;;26.60;48.10;;;;;;5069147;28;46634;-85
2022/07/03 09:18:07;;;;;;;0.60;0.60;;;26.70;47.90;;;;;;5069697;28;45126;-85
2022/07/03 09:20:35;;;;;;;0.60;0.60;;;26.70;47.50;;;;;;5066931;28;45302;-85
2022/07/03 09:23:12;;;;;;;1.85;0.65;;;26.70;47.20;;;;;;5069922;28;45371;-85
2022/07/03 09:25:53;;;;;;;0.80;0.75;;;26.70;47.50;;;;;;5069403;28;45394;-85
2022/07/03 09:28:21;;;;;;;0.60;0.60;;;26.80;47.30;;;;;;5069150;28;45276;-85
2022/07/03 09:30:58;;;;;;;0.90;0.70;;;26.80;46.40;;;;;;5069455;28;45281;-85
2022/07/03 09:33:25;;;;;;;1.23;0.65;;;26.90;44.80;;;;;;5069144;28;45347;-85
2022/07/03 09:35:54;;;;;;;0.70;0.70;;;26.90;44.10;;;;;;5069464;28;46647;-85
2022/07/03 09:38:20;;;;;;;0.50;0.50;;;26.90;44.40;;;;;;5069263;28;45308;-85
2022/07/03 09:40:48;;;;;;;0.50;0.50;;;26.90;43.40;;;;;;5066159;28;45326;-86
2022/07/03 09:43:16;;;;;;;0.43;0.43;;;27.00;43.50;;;;;;5069642;28;45105;-85
2022/07/03 09:45:50;;;;;;;0.52;0.40;;;27.00;42.50;;;;;;5066713;28;45269;-86
2022/07/03 09:48:22;;;;;;;0.68;0.65;;;27.00;42.00;;;;;;5069357;28;45242;-86
2022/07/03 09:50:49;;;;;;;0.73;0.50;;;27.10;42.10;;;;;;5069255;28;45229;-86
2022/07/03 09:53:16;;;;;;;0.70;0.70;;;27.10;41.90;;;;;;5069290;28;45389;-86
2022/07/03 09:55:45;;;;;;;1.00;0.60;;;27.10;41.30;;;;;;5068505;28;45281;-86
2022/07/03 09:58:12;;;;;;;0.98;0.70;;;27.20;41.50;;;;;;5069157;28;45301;-86
2022/07/03 10:00:40;;;;;;;0.60;0.60;;;27.20;41.10;;;;;;5069521;28;45254;-86
2022/07/03 10:03:08;;;;;;;0.60;0.60;;;27.20;41.00;;;;;;5069193;28;45428;-86
2022/07/03 10:05:36;;;;;;;1.75;0.50;;;27.30;40.60;;;;;;5069274;28;45444;-87
2022/07/03 10:08:04;;;;;;;0.52;0.52;;;27.30;39.50;;;;;;5069538;28;45246;-86
2022/07/03 10:10:31;;;;;;;1.17;0.60;;;27.30;39.80;;;;;;5069031;28;45230;-86
2022/07/03 10:12:58;;;;;;;0.50;0.50;;;27.40;39.70;;;;;;5066153;28;45170;-86
2022/07/03 10:15:25;;;;;;;1.40;0.63;;;27.40;39.80;;;;;;5068479;28;45278;-86
2022/07/03 10:17:56;;;;;;;1.25;0.90;;;27.50;39.60;;;;;;5068449;28;44710;-87
2022/07/03 10:20:27;;;;;;;0.68;0.60;;;27.50;39.60;;;;;;5052300;28;45268;-86
2022/07/03 10:22:54;;;;;;;0.38;0.38;;;27.50;38.10;;;;;;5062697;28;45240;-86
2022/07/03 10:25:21;;;;;;;0.47;0.47;;;27.50;37.90;;;;;;5066944;28;45454;-86
2022/07/03 10:27:48;;;;;;;0.40;0.40;;;27.60;38.20;;;;;;5072730;28;45344;-85
2022/07/03 10:30:15;;;;;;;0.50;0.50;;;27.60;38.50;;;;;;5089463;28;45424;-87
2022/07/03 10:32:42;;;;;;;1.20;0.40;;;27.70;38.00;;;;;;5086607;28;45415;-86
2022/07/03 10:35:11;;;;;;;1.15;0.60;;;27.70;37.40;;;;;;5089029;28;45296;-86
2022/07/03 10:37:42;;;;;;;0.82;0.60;;;27.70;37.10;;;;;;5089033;28;45406;-86
2022/07/03 10:46:15;;;;;;;0.93;0.70;;;27.80;38.80;;;;;;5026264;28;46170;-87
2022/07/03 10:48:58;;;;;;;1.15;0.50;;;27.90;39.10;;;;;;5027121;28;45404;-86
2022/07/03 10:51:27;;;;;;;0.75;0.60;;;28.00;38.30;;;;;;5057850;28;45262;-88
2022/07/03 10:54:15;;;;;;;0.60;0.60;;;28.00;38.20;;;;;;5089092;28;45483;-86
2022/07/03 10:57:10;;;;;;;0.40;0.40;;;28.10;39.30;;;;;;5085767;28;45223;-87
2022/07/03 11:00:02;;;;;;;0.95;0.63;;;28.10;39.30;;;;;;5088442;28;44884;-86
2022/07/03 11:02:31;;;;;;;2.38;0.55;;;28.20;38.40;;;;;;5073567;28;45307;-87
2022/07/03 11:05:05;;;;;;;0.60;0.60;;;28.30;37.50;;;;;;5089538;28;45194;-87
2022/07/03 11:07:34;;;;;;;0.77;0.60;;;28.30;37.70;;;;;;5088813;28;47243;-86
2022/07/03 11:10:32;;;;;;;0.60;0.60;;;28.40;37.80;;;;;;5085524;28;45408;-86
2022/07/03 11:12:59;;;;;;;0.40;0.40;;;28.40;36.90;;;;;;5088328;28;45262;-85
2022/07/03 11:15:26;;;;;;;1.00;0.63;;;28.50;37.30;;;;;;5088450;28;45184;-85
2022/07/03 11:18:08;;;;;;;0.70;0.70;;;28.50;37.90;;;;;;5088265;28;46959;-85
2022/07/03 11:20:36;;;;;;;0.50;0.50;;;28.60;39.60;;;;;;5088169;28;44565;-87
2022/07/03 11:23:08;;;;;;;2.60;0.57;;;28.70;38.40;;;;;;5087984;28;45240;-86
2022/07/03 11:25:39;;;;;;;1.88;0.98;;;28.70;37.00;;;;;;5086806;27;45248;-86
2022/07/03 11:28:06;;;;;;;0.50;0.50;;;28.80;36.60;;;;;;5088841;28;45536;-86
2022/07/03 11:30:33;;;;;;;3.65;0.70;;;28.90;36.90;;;;;;5089053;28;45356;-86
2022/07/03 11:33:00;;;;;;;0.65;0.52;;;28.90;37.30;;;;;;5085608;28;45181;-86
2022/07/03 11:35:49;;;;;;;1.13;0.60;;;29.00;37.10;;;;;;5086195;28;45332;-86
2022/07/03 11:38:20;;;;;;;1.13;0.60;;;29.10;36.90;;;;;;5089358;28;45693;-87
2022/07/03 11:40:48;;;;;;;0.60;0.60;;;29.10;37.10;;;;;;5087881;28;45161;-86
2022/07/03 11:43:15;;;;;;;0.60;0.60;;;29.20;36.80;;;;;;5084742;28;45339;-87
2022/07/03 11:45:42;;;;;;;1.00;0.50;;;29.30;36.90;;;;;;5087961;28;45311;-87
2022/07/03 11:48:10;;;;;;;0.68;0.68;;;29.40;37.10;;;;;;5084982;28;45568;-86
2022/07/03 11:50:38;;;;;;;1.05;0.65;;;29.40;36.90;;;;;;5088175;28;45322;-84
2022/07/03 11:53:18;;;;;;;3.10;1.27;;;29.50;37.00;;;;;;5087982;28;45384;-85
2022/07/03 11:55:49;;;;;;;1.15;0.70;;;29.60;37.10;;;;;;5088129;28;45185;-87
2022/07/03 11:58:16;;;;;;;0.60;0.60;;;29.70;37.00;;;;;;5088192;28;47180;-83
2022/07/03 12:00:42;;;;;;;0.50;0.50;;;29.70;36.50;;;;;;5087990;28;45322;-87
2022/07/03 12:03:10;;;;;;;6.03;4.55;;;29.60;35.50;;;;;;5084795;28;45417;-84
2022/07/03 12:05:37;;;;;;;3.90;3.45;;;29.70;35.40;;;;;;5087821;28;45482;-85
2022/07/03 12:08:04;;;;;;;3.38;2.50;;;29.80;36.00;;;;;;5085299;28;46790;-85
2022/07/03 12:10:39;;;;;;;1.38;1.27;;;29.90;36.10;;;;;;5084795;28;45315;-84
2022/07/03 12:13:19;;;;;;;2.03;1.00;;;29.90;35.70;;;;;;5084749;28;45279;-86
2022/07/03 12:15:47;;;;;;;0.82;0.80;;;30.00;35.40;;;;;;5088087;28;45229;-86
2022/07/03 12:18:16;;;;;;;1.13;0.80;;;30.00;35.90;;;;;;5087322;28;47217;-88
2022/07/03 12:20:43;;;;;;;0.60;0.60;;;30.10;35.10;;;;;;5088837;28;46380;-86
2022/07/03 12:23:10;;;;;;;0.50;0.50;;;30.20;35.30;;;;;;5084861;28;45224;-87
2022/07/03 12:25:40;;;;;;;0.60;0.60;;;30.30;35.50;;;;;;5087335;28;45288;-87
2022/07/03 12:28:08;;;;;;;1.23;0.60;;;30.40;35.60;;;;;;5087588;28;45308;-87
2022/07/03 12:30:35;;;;;;;2.28;0.70;;;30.50;35.50;;;;;;5087688;28;45162;-85
2022/07/03 12:33:01;;;;;;;0.50;0.50;;;30.60;34.90;;;;;;5087371;28;45208;-86
2022/07/03 12:35:28;;;;;;;1.17;0.50;;;30.60;34.70;;;;;;5088746;28;45163;-86
2022/07/03 12:37:55;;;;;;;2.05;0.52;;;30.70;34.00;;;;;;5084587;28;46795;-87
2022/07/03 12:40:22;;;;;;;1.38;0.50;;;30.80;33.40;;;;;;5088187;28;45409;-85
2022/07/03 12:42:51;;;;;;;0.77;0.60;;;30.90;33.60;;;;;;5086379;28;45208;-85
2022/07/03 12:45:19;;;;;;;0.73;0.68;;;31.00;34.10;;;;;;5088738;28;45474;-87
2022/07/03 12:47:46;;;;;;;1.27;0.60;;;31.00;33.60;;;;;;5088350;28;45429;-87
2022/07/03 12:50:14;;;;;;;1.42;0.70;;;31.00;33.50;;;;;;5088057;28;45275;-86
2022/07/03 12:52:50;;;;;;;1.02;0.70;;;31.00;33.40;;;;;;5088521;28;45251;-87
2022/07/03 12:55:23;;;;;;;0.60;0.60;;;31.10;33.40;;;;;;5089057;28;45407;-86
2022/07/03 13:00:51;;;;;;;2.08;0.77;;;31.20;33.10;;;;;;5085634;28;45308;-86
2022/07/03 13:03:27;;;;;;;2.97;0.73;;;31.30;33.10;;;;;;5089506;28;45275;-85
2022/07/03 13:05:54;;;;;;;1.45;0.80;;;31.40;31.80;;;;;;5089328;28;45264;-85
2022/07/03 13:08:21;;;;;;;1.27;0.68;;;31.40;31.80;;;;;;5086944;28;45240;-87
2022/07/03 13:10:55;;;;;;;1.17;0.75;;;31.40;31.60;;;;;;5090584;28;45144;-85
2022/07/03 13:13:23;;;;;;;0.90;0.68;;;31.50;31.80;;;;;;5089359;28;45136;-87